"WATCHING THE WEATHER TO PROTECT LIFE AND PROPERTY"


Aviation
Satellite (InfraRed)


KFLL 221453Z 11006KT 10SM FEW030 FEW250 29/21 A3008 RMK AO2 SLP187 T02890206 50000
KMCO 221453Z 21007KT 10SM FEW030 SCT120 SCT300 27/19 A3007 RMK AO2 SLP182 T02720194 58005
KMIA 221453Z 10007KT 10SM SCT034 29/20 A3009 RMK AO2 SLP189 T02940200 50000
KTPA 221453Z 20010KT 10SM FEW150 SCT250 29/21 A3007 RMK AO2 SLP182 T02940206 58005
MDPP 221500Z 09010KT 9999 BKN018 29/25 Q1017
MDSD 221500Z 05006KT 9999 FEW020TCU SCT020 30/24 Q1016 TCU/NE
MKJS 221500Z 09010KT 9999 FEW022 30/24 Q1016
MTPP 221400Z 10014KT 9000 FEW024 30/22 Q1015 A2998
MUHA 221455Z 13008KT 100V170 9000 SCT025 29/20 Q1018
MYNN 221500Z 03007KT 9999 FEW020 29/21 A3012
TAPA 221500Z 11010KT 9999 SCT022 29/24 Q1017 NOSIG
TFFF 221500Z AUTO 10016KT 9999 BKN028 BKN034 BKN046 31/23 Q1016 NOSIG
TFFR 221500Z AUTO 13012KT 9999 SCT034 BKN046 30/23 Q1017 NOSIG
TIST 221453Z 12011KT 10SM FEW034 31/23 A3005 RMK AO2 SLP177 T03110233 51006 $
TISX 221453Z 10013KT 8SM SCT022 BKN100 31/24 A3006 RMK AO2 SLP178 HZ ALQDS T03060244 50007
TJSJ 221456Z 07012KT 9SM FEW029 SCT032 31/24 A3006 RMK AO2 SLP177 HZ ALQDS T03110239 50002
TKPK 221500Z 08008KT 9999 SCT019 30/24 Q1017
TNCA 221500Z 09020KT 9999 SCT022 31/25 Q1013 A2993 NOSIG
TNCB 221455Z 10019KT 070V140 9000 SCT017 30/24 Q1014
TNCC 221500Z 10014KT 070V130 8000 SCT024 31/23 Q1014 NOSIG
TNCE 221455Z AUTO 09012KT 040V120 //// // ///////// 30/24 Q1018 RE//
TNCM 221500Z 10010KT 9999 FEW022 30/24 Q1018 A3006 NOSIG
TQPF 221500Z 10012KT 9999 SCT020 29/24 Q1018
TUPJ 221500Z 11007KT 9999 SCT017 30/23 Q1017 RMK A3007